Terminal Aerodrome Forecast
Issued by NWS Chicago, IL

Home | Current Version | Previous Version | Graphics & Text | Print | Product List | Glossary On
Versions: 1 2 3 4 5 6 7 8 9 10 11 12 13 14 15 16 17 18 19 20 21 22 23 24 25 26 27 28 29 30 31 32 33
000
FTUS43 KLOT 220500
TAFRFD
TAF
KRFD 220540Z 2206/2306 35005KT 6SM -SN SCT025 OVC035
      TEMPO 2206/2208 5SM -SN BKN030
     FM220800 33005KT P6SM SCT015 OVC025
     FM221100 30006KT P6SM SCT007 BKN012
     FM222300 25005KT P6SM SCT020 SCT250=

USA.gov is the U.S. government's official web portal to all federal, state and local government web resources and services.